Time;durP1;ratioP1;P1;durP2;ratioP2;P2;SDS_P1;SDS_P2;PMS_P1;PMS_P2;Temp;Humidity;BMP_temperature;BMP_pressure;BME280_temperature;BME280_humidity;BME280_pressure;Samples;Min_cycle;Max_cycle;Signal;HPM_P1;HPM_P2
2022/05/06 00:01:51;;;;;;;14.48;7.68;;;435.80;2355.20;;;;;;5089510;28;20548;-78
2022/05/06 00:04:17;;;;;;;15.73;8.40;;;435.80;2355.20;;;;;;5090212;28;20032;-78
2022/05/06 00:06:43;;;;;;;10.10;7.43;;;435.60;2355.20;;;;;;5090463;28;20107;-78
2022/05/06 00:09:09;;;;;;;11.77;7.07;;;435.60;2355.20;;;;;;5090358;28;20024;-79
2022/05/06 00:11:35;;;;;;;15.75;7.55;;;435.50;2355.20;;;;;;5092055;28;20032;-79
2022/05/06 00:14:01;;;;;;;12.55;6.90;;;435.40;2355.20;;;;;;5094410;28;20051;-79
2022/05/06 00:16:27;;;;;;;12.32;6.78;;;435.40;2355.20;;;;;;5094055;28;20017;-79
2022/05/06 00:18:54;;;;;;;10.13;6.57;;;435.40;2355.20;;;;;;5094265;28;20069;-79
2022/05/06 00:21:21;;;;;;;9.30;6.40;;;435.80;2355.20;;;;;;5094054;28;20028;-80
2022/05/06 00:23:47;;;;;;;13.27;7.53;;;435.40;2355.20;;;;;;5094262;28;20613;-79
2022/05/06 00:26:13;;;;;;;12.50;6.57;;;435.40;2355.20;;;;;;5094085;28;20020;-79
2022/05/06 00:28:39;;;;;;;11.63;6.85;;;435.30;2355.20;;;;;;5094010;28;20024;-79
2022/05/06 00:31:09;;;;;;;11.02;6.40;;;435.30;2355.20;;;;;;5094020;28;20028;-78
2022/05/06 00:33:35;;;;;;;10.00;6.68;;;435.40;2355.20;;;;;;5091772;28;20054;-79
2022/05/06 00:36:02;;;;;;;10.80;6.97;;;435.50;2355.20;;;;;;5094245;28;20039;-79
2022/05/06 00:38:29;;;;;;;10.65;6.07;;;435.50;2355.20;;;;;;5093766;28;20016;-79
2022/05/06 00:40:55;;;;;;;12.45;6.00;;;435.40;2355.20;;;;;;5093981;28;20066;-78
2022/05/06 00:43:21;;;;;;;11.20;7.18;;;435.40;2355.20;;;;;;5093550;28;20059;-78
2022/05/06 00:45:51;;;;;;;11.45;7.40;;;435.30;2355.20;;;;;;5093587;28;20468;-78
2022/05/06 00:48:18;;;;;;;12.68;7.43;;;435.20;2355.20;;;;;;5094871;28;20357;-78
2022/05/06 00:50:45;;;;;;;14.90;7.50;;;410.50;2355.20;;;;;;5093499;28;20039;-78
2022/05/06 00:53:13;;;;;;;10.48;7.20;;;410.30;2355.20;;;;;;5093589;28;20506;-78
2022/05/06 00:55:39;;;;;;;13.07;6.78;;;410.30;2355.20;;;;;;5093120;28;20549;-78
2022/05/06 00:58:06;;;;;;;13.30;7.22;;;410.40;2355.20;;;;;;5093470;28;20020;-79
2022/05/06 01:00:31;;;;;;;13.02;7.05;;;435.30;2355.20;;;;;;5094150;28;20055;-78
2022/05/06 01:02:57;;;;;;;11.90;7.35;;;410.30;2355.20;;;;;;5093075;28;20044;-79
2022/05/06 01:05:23;;;;;;;12.38;7.35;;;410.20;2355.20;;;;;;5093022;28;20024;-78
2022/05/06 01:07:51;;;;;;;14.20;7.88;;;410.20;2355.20;;;;;;5093345;28;20024;-78
2022/05/06 01:10:18;;;;;;;13.45;7.28;;;410.20;2355.20;;;;;;5092879;28;20016;-78
2022/05/06 01:12:44;;;;;;;9.38;6.75;;;410.20;2355.20;;;;;;5093065;28;20129;-78
2022/05/06 01:15:29;;;;;;;16.05;7.88;;;410.30;2355.20;;;;;;5092969;28;20012;-78
2022/05/06 01:17:56;;;;;;;12.82;7.65;;;410.30;2355.20;;;;;;5090401;28;20514;-79
2022/05/06 01:20:24;;;;;;;9.38;6.78;;;410.30;2355.20;;;;;;5092754;28;20425;-78
2022/05/06 01:22:51;;;;;;;11.00;6.43;;;410.40;2355.20;;;;;;5091797;28;20028;-78
2022/05/06 01:25:18;;;;;;;19.70;8.43;;;410.30;2355.20;;;;;;5093916;28;20465;-78
2022/05/06 01:28:15;;;;;;;11.77;8.10;;;410.30;2355.20;;;;;;5092989;28;20399;-78
2022/05/06 01:30:45;;;;;;;12.52;8.40;;;410.30;2355.20;;;;;;5004605;28;20113;-78
2022/05/06 01:33:16;;;;;;;10.60;6.82;;;410.30;2355.20;;;;;;4995310;28;20033;-79
2022/05/06 01:36:01;;;;;;;13.60;6.93;;;410.30;2355.20;;;;;;5011865;28;20037;-79
2022/05/06 01:38:46;;;;;;;11.20;6.95;;;410.30;2355.20;;;;;;4995156;28;20021;-78
2022/05/06 01:41:25;;;;;;;12.68;7.63;;;410.20;2355.20;;;;;;5011468;28;20073;-78
2022/05/06 01:43:56;;;;;;;16.30;7.20;;;410.30;2355.20;;;;;;4995124;28;20038;-78
2022/05/06 01:46:25;;;;;;;11.27;7.22;;;410.30;2355.20;;;;;;5011432;28;20018;-78
2022/05/06 01:48:52;;;;;;;14.70;7.28;;;410.30;2355.20;;;;;;4995138;28;20558;-78
2022/05/06 01:51:20;;;;;;;16.45;8.40;;;410.50;2355.20;;;;;;4995015;28;20018;-79
2022/05/06 01:53:46;;;;;;;12.70;8.07;;;410.40;2355.20;;;;;;4994704;28;20030;-78
2022/05/06 01:56:12;;;;;;;13.20;7.57;;;410.50;2355.20;;;;;;4995157;28;20017;-78
2022/05/06 01:58:38;;;;;;;14.60;8.85;;;410.50;2355.20;;;;;;4994862;28;20022;-78
2022/05/06 02:01:04;;;;;;;16.67;9.05;;;410.30;2355.20;;;;;;4994707;28;20042;-78
2022/05/06 02:06:14;;;;;;;18.42;10.25;;;410.20;2355.20;;;;;;5018768;28;20040;-78
2022/05/06 02:08:40;;;;;;;22.27;9.95;;;410.20;2355.20;;;;;;5092186;28;20027;-78
2022/05/06 02:11:06;;;;;;;16.45;9.80;;;410.20;2355.20;;;;;;5093000;28;20012;-78
2022/05/06 02:13:34;;;;;;;14.60;9.18;;;410.10;2355.20;;;;;;5092039;28;20460;-78
2022/05/06 02:16:02;;;;;;;16.05;9.95;;;410.00;2355.20;;;;;;5091652;28;20607;-78
2022/05/06 02:18:28;;;;;;;22.50;10.88;;;410.20;2355.20;;;;;;5091867;28;20027;-78
2022/05/06 02:20:59;;;;;;;20.42;11.07;;;410.20;2355.20;;;;;;5091659;28;20032;-78
2022/05/06 02:23:25;;;;;;;23.65;10.32;;;409.80;2355.20;;;;;;5091820;28;20032;-78
2022/05/06 02:25:52;;;;;;;16.70;9.98;;;409.60;2355.20;;;;;;5091584;28;20092;-78
2022/05/06 02:28:18;;;;;;;14.55;9.40;;;384.70;2329.60;;;;;;5091607;28;20020;-79
2022/05/06 02:33:30;;;;;;;13.10;8.88;;;384.70;2329.60;;;;;;5081135;28;20059;-78
2022/05/06 02:35:56;;;;;;;17.63;8.57;;;384.70;2329.60;;;;;;5091697;28;20103;-78
2022/05/06 02:38:23;;;;;;;14.13;9.05;;;384.60;2329.60;;;;;;5091303;28;20111;-78
2022/05/06 02:40:49;;;;;;;13.60;8.52;;;384.60;2329.60;;;;;;5091478;28;20027;-79
2022/05/06 02:43:18;;;;;;;10.70;7.25;;;384.70;2329.60;;;;;;5086872;28;20430;-78
2022/05/06 02:45:44;;;;;;;13.13;7.22;;;384.60;2329.60;;;;;;5091370;28;20115;-78
2022/05/06 02:48:10;;;;;;;11.90;7.40;;;384.50;2329.60;;;;;;5091559;28;20387;-79
2022/05/06 02:50:37;;;;;;;9.30;6.80;;;384.60;2329.60;;;;;;5091247;28;20016;-79
2022/05/06 02:53:03;;;;;;;9.50;6.97;;;384.70;2329.60;;;;;;5092755;28;20033;-79
2022/05/06 02:55:29;;;;;;;9.90;6.53;;;384.80;2329.60;;;;;;5091320;28;20020;-79
2022/05/06 02:57:55;;;;;;;12.65;7.03;;;384.90;2329.60;;;;;;5092402;28;20047;-79
2022/05/06 03:00:21;;;;;;;11.32;7.05;;;409.60;2355.20;;;;;;5091060;28;20455;-79
2022/05/06 03:02:47;;;;;;;10.80;7.30;;;409.60;2355.20;;;;;;5091087;28;20038;-79
2022/05/06 03:05:14;;;;;;;9.95;7.07;;;409.70;2355.20;;;;;;5092481;28;20040;-79
2022/05/06 03:07:41;;;;;;;10.55;7.05;;;409.70;2355.20;;;;;;5090838;28;20038;-79
2022/05/06 03:10:09;;;;;;;18.38;8.40;;;409.70;2355.20;;;;;;5091175;28;20028;-79
2022/05/06 03:12:35;;;;;;;18.67;9.23;;;409.80;2355.20;;;;;;5091045;28;20103;-79
2022/05/06 03:15:04;;;;;;;16.23;8.82;;;409.70;2355.20;;;;;;5090941;28;20123;-79
2022/05/06 03:17:31;;;;;;;11.63;8.10;;;384.90;2329.60;;;;;;5090807;28;20026;-79
2022/05/06 03:19:57;;;;;;;16.08;10.15;;;409.60;2355.20;;;;;;5092327;28;20016;-79
2022/05/06 03:22:23;;;;;;;16.33;10.02;;;384.90;2329.60;;;;;;5090966;28;20039;-79
2022/05/06 03:24:49;;;;;;;19.23;11.77;;;409.60;2355.20;;;;;;5090974;28;20383;-79
2022/05/06 03:30:00;;;;;;;24.48;13.80;;;409.60;2355.20;;;;;;5092132;28;20062;-79
2022/05/06 03:32:27;;;;;;;24.88;13.68;;;384.80;2329.60;;;;;;5090899;28;20380;-79
2022/05/06 03:34:53;;;;;;;23.48;13.93;;;384.70;2329.60;;;;;;5090795;28;20028;-79
2022/05/06 03:37:19;;;;;;;24.25;13.70;;;384.60;2329.60;;;;;;5090919;28;20020;-79
2022/05/06 03:39:45;;;;;;;26.13;14.32;;;384.70;2329.60;;;;;;5090753;28;20012;-79
2022/05/06 03:42:11;;;;;;;22.95;14.77;;;384.60;2329.60;;;;;;5091153;28;20040;-78
2022/05/06 03:44:36;;;;;;;23.08;12.70;;;384.70;2329.60;;;;;;5091722;28;20027;-79
2022/05/06 03:47:02;;;;;;;17.88;11.75;;;384.60;2329.60;;;;;;5092858;28;20024;-79
2022/05/06 03:49:28;;;;;;;21.60;12.13;;;384.60;2329.60;;;;;;5096166;28;20012;-79
2022/05/06 03:51:54;;;;;;;19.02;11.88;;;384.60;2329.60;;;;;;5095620;28;20036;-78
2022/05/06 03:54:20;;;;;;;22.23;12.40;;;384.70;2329.60;;;;;;5093418;28;20012;-79
2022/05/06 03:56:46;;;;;;;16.25;9.98;;;384.70;2329.60;;;;;;5095855;28;20422;-79
2022/05/06 03:59:11;;;;;;;21.02;10.85;;;384.60;2329.60;;;;;;5094733;28;20035;-78
2022/05/06 04:01:37;;;;;;;17.75;11.18;;;384.60;2329.60;;;;;;5094356;28;20020;-79
2022/05/06 04:04:04;;;;;;;14.40;9.27;;;384.50;2329.60;;;;;;5096019;28;20107;-79
2022/05/06 04:06:30;;;;;;;17.70;10.38;;;384.60;2329.60;;;;;;5095775;28;20020;-79
2022/05/06 04:08:56;;;;;;;17.92;9.23;;;384.70;2329.60;;;;;;5096111;28;20050;-78
2022/05/06 04:11:21;;;;;;;12.25;8.13;;;384.70;2329.60;;;;;;5094439;28;20020;-79
2022/05/06 04:13:48;;;;;;;15.57;8.48;;;384.80;2329.60;;;;;;5094400;28;20551;-78
2022/05/06 04:16:14;;;;;;;12.02;7.65;;;384.90;2329.60;;;;;;5087662;28;20111;-78
2022/05/06 04:18:40;;;;;;;11.45;7.88;;;409.70;2355.20;;;;;;5091254;28;20012;-79
2022/05/06 04:23:50;;;;;;;14.38;7.90;;;409.60;2355.20;;;;;;5094283;28;20149;-80
2022/05/06 04:26:16;;;;;;;14.38;7.82;;;409.60;2355.20;;;;;;5095036;28;20510;-81
2022/05/06 04:28:43;;;;;;;10.05;7.07;;;409.60;2355.20;;;;;;5094468;28;20425;-79
2022/05/06 04:31:09;;;;;;;8.95;6.70;;;384.90;2329.60;;;;;;5093992;28;20031;-78
2022/05/06 04:33:38;;;;;;;9.15;6.47;;;409.60;2355.20;;;;;;5094017;28;20028;-79
2022/05/06 04:36:04;;;;;;;12.52;6.80;;;409.70;2355.20;;;;;;5091516;28;20022;-79
2022/05/06 04:38:30;;;;;;;12.07;7.25;;;409.70;2355.20;;;;;;5094794;28;20099;-79
2022/05/06 04:40:59;;;;;;;12.18;7.20;;;409.80;2355.20;;;;;;5094766;28;20029;-79
2022/05/06 04:43:26;;;;;;;19.08;10.57;;;409.90;2355.20;;;;;;5091681;28;20068;-79
2022/05/06 04:45:52;;;;;;;11.73;6.93;;;410.00;2355.20;;;;;;5088183;28;20020;-79
2022/05/06 04:48:19;;;;;;;10.18;6.75;;;410.00;2355.20;;;;;;5095101;28;20027;-79
2022/05/06 04:50:45;;;;;;;7.95;5.97;;;410.00;2355.20;;;;;;5094775;28;20393;-80
2022/05/06 04:53:12;;;;;;;9.52;5.80;;;410.10;2355.20;;;;;;5093551;28;20033;-79
2022/05/06 04:55:43;;;;;;;11.48;6.28;;;410.20;2355.20;;;;;;5093745;28;20028;-79
2022/05/06 04:58:10;;;;;;;11.57;7.40;;;410.20;2355.20;;;;;;5085011;28;20461;-79
2022/05/06 05:00:36;;;;;;;10.25;7.78;;;410.20;2355.20;;;;;;5085246;28;20511;-79
2022/05/06 05:03:02;;;;;;;7.88;6.50;;;410.20;2355.20;;;;;;5088730;28;20040;-79
2022/05/06 05:05:28;;;;;;;20.63;11.70;;;410.20;2355.20;;;;;;5094914;28;20495;-80
2022/05/06 05:07:54;;;;;;;10.05;6.50;;;410.20;2355.20;;;;;;5094634;28;20074;-79
2022/05/06 05:10:21;;;;;;;11.02;6.57;;;410.30;2355.20;;;;;;5093418;28;20065;-79
2022/05/06 05:12:47;;;;;;;15.00;7.22;;;410.20;2355.20;;;;;;5093213;28;20095;-79
2022/05/06 05:15:15;;;;;;;13.02;7.20;;;410.20;2355.20;;;;;;5093133;28;20376;-79
2022/05/06 05:17:45;;;;;;;9.45;6.93;;;410.30;2355.20;;;;;;5093075;28;20020;-78
2022/05/06 05:20:12;;;;;;;13.55;7.32;;;410.30;2355.20;;;;;;5093083;28;20038;-83
2022/05/06 05:22:38;;;;;;;12.07;7.68;;;410.40;2355.20;;;;;;5093688;28;20447;-80
2022/05/06 05:25:05;;;;;;;9.13;7.20;;;410.50;2355.20;;;;;;5090075;28;20395;-79
2022/05/06 05:27:31;;;;;;;17.00;8.35;;;410.50;2355.20;;;;;;5093166;28;20020;-78
2022/05/06 05:29:58;;;;;;;9.65;6.90;;;435.20;2355.20;;;;;;5094297;28;20099;-79
2022/05/06 05:32:24;;;;;;;11.55;7.15;;;435.30;2355.20;;;;;;5086547;28;20063;-78
2022/05/06 05:34:50;;;;;;;8.27;6.15;;;435.30;2355.20;;;;;;5092015;28;20024;-79
2022/05/06 05:37:16;;;;;;;10.38;6.43;;;435.30;2355.20;;;;;;5094215;28;20070;-79
2022/05/06 05:39:41;;;;;;;12.93;6.55;;;435.50;2355.20;;;;;;5093620;28;20017;-78
2022/05/06 05:42:07;;;;;;;9.45;5.93;;;435.50;2355.20;;;;;;5093586;28;20089;-78
2022/05/06 05:50:06;;;;;;;10.55;6.15;;;435.60;2355.20;;;;;;5091161;28;20050;-78
2022/05/06 05:52:32;;;;;;;13.60;5.85;;;435.60;2355.20;;;;;;5092719;28;20023;-79
2022/05/06 05:54:58;;;;;;;12.82;6.47;;;435.80;2355.20;;;;;;5093102;28;20031;-80
2022/05/06 05:57:24;;;;;;;9.65;5.72;;;435.80;2355.20;;;;;;5094501;28;20024;-78
2022/05/06 05:59:49;;;;;;;12.65;6.25;;;435.90;2355.20;;;;;;5092178;28;20039;-78
2022/05/06 06:02:17;;;;;;;13.02;6.45;;;436.00;2355.20;;;;;;5094024;28;20399;-79
2022/05/06 06:04:43;;;;;;;13.05;6.18;;;436.10;2355.20;;;;;;5092603;28;20102;-79
2022/05/06 06:07:09;;;;;;;12.25;5.90;;;436.10;2355.20;;;;;;5092867;28;20067;-81
2022/05/06 06:09:35;;;;;;;7.63;5.43;;;436.10;2355.20;;;;;;5091514;28;20035;-78
2022/05/06 06:12:01;;;;;;;8.43;5.15;;;460.90;2380.80;;;;;;5092426;28;20036;-78
2022/05/06 06:14:26;;;;;;;10.10;5.93;;;460.90;2380.80;;;;;;5093835;28;20357;-78
2022/05/06 06:16:52;;;;;;;7.85;5.43;;;460.90;2380.80;;;;;;5093385;28;20048;-78
2022/05/06 06:19:18;;;;;;;8.48;4.90;;;461.10;2380.80;;;;;;5092273;28;20063;-77
2022/05/06 06:21:44;;;;;;;9.27;5.38;;;461.10;2380.80;;;;;;5092257;28;20032;-79
2022/05/06 06:24:10;;;;;;;8.88;5.18;;;461.20;2380.80;;;;;;5092266;28;20032;-79
2022/05/06 06:26:36;;;;;;;7.70;5.03;;;461.20;2380.80;;;;;;5093556;28;20028;-78
2022/05/06 06:29:05;;;;;;;8.02;4.95;;;461.30;2380.80;;;;;;5092262;28;20106;-78
2022/05/06 06:31:32;;;;;;;6.78;4.40;;;461.40;2380.80;;;;;;5091858;28;20054;-78
2022/05/06 06:33:59;;;;;;;10.25;5.43;;;461.40;2380.80;;;;;;5092601;28;20031;-77
2022/05/06 06:36:25;;;;;;;16.83;5.43;;;461.50;2380.80;;;;;;5091209;28;20031;-83
2022/05/06 06:38:51;;;;;;;9.65;5.35;;;461.60;2380.80;;;;;;5090456;28;20081;-78
2022/05/06 06:41:16;;;;;;;10.73;4.63;;;461.60;2380.80;;;;;;5092759;28;20020;-78
2022/05/06 06:43:42;;;;;;;8.88;4.22;;;486.40;2380.80;;;;;;5091262;28;20043;-77
2022/05/06 06:46:08;;;;;;;10.63;4.75;;;486.50;2380.80;;;;;;5093342;28;20024;-79
2022/05/06 06:48:34;;;;;;;8.27;5.15;;;486.50;2380.80;;;;;;5091303;28;20031;-78
2022/05/06 06:51:00;;;;;;;9.98;4.40;;;486.60;2380.80;;;;;;5092991;28;20024;-78
2022/05/06 06:53:27;;;;;;;7.38;4.22;;;486.60;2380.80;;;;;;5091607;28;20527;-78
2022/05/06 06:55:52;;;;;;;7.30;4.47;;;486.60;2380.80;;;;;;5092516;28;20016;-78
2022/05/06 06:58:18;;;;;;;7.03;4.43;;;486.60;2380.80;;;;;;5090798;28;20036;-78
2022/05/06 07:00:44;;;;;;;8.05;4.30;;;486.70;2380.80;;;;;;5092013;28;20032;-79
2022/05/06 07:03:14;;;;;;;10.30;3.95;;;486.70;2380.80;;;;;;5087755;28;20028;-78
2022/05/06 07:11:52;;;;;;;5.97;4.10;;;486.80;2380.80;;;;;;5090846;28;20372;-77
2022/05/06 07:13:55;;;;;;;8.25;3.67;;;486.90;2380.80;;;;;;5090343;28;20100;-77
2022/05/06 07:16:21;;;;;;;13.45;4.97;;;487.00;2329.60;;;;;;5092958;28;20110;-77
2022/05/06 07:18:47;;;;;;;10.07;4.35;;;487.10;2329.60;;;;;;5090988;28;20072;-78
2022/05/06 07:21:12;;;;;;;9.45;4.18;;;487.10;2329.60;;;;;;5090302;28;20750;-77
2022/05/06 07:23:38;;;;;;;6.70;3.95;;;487.10;2252.80;;;;;;5092594;28;20044;-78
2022/05/06 07:26:04;;;;;;;12.05;4.25;;;487.10;2278.40;;;;;;5091269;28;20024;-77
2022/05/06 07:28:30;;;;;;;11.40;5.72;;;487.20;2252.80;;;;;;5091322;28;20028;-77
2022/05/06 07:30:55;;;;;;;7.80;4.00;;;512.10;2252.80;;;;;;5090663;28;20465;-77
2022/05/06 07:33:21;;;;;;;7.47;4.05;;;487.30;2227.20;;;;;;5092153;28;20023;-78
2022/05/06 07:35:47;;;;;;;5.53;4.30;;;487.30;2201.60;;;;;;5090334;28;20024;-78
2022/05/06 07:38:12;;;;;;;5.45;3.80;;;487.30;2201.60;;;;;;5090803;28;20035;-79
2022/05/06 07:40:38;;;;;;;6.95;3.67;;;512.00;2124.80;;;;;;5090181;28;20115;-77
2022/05/06 07:43:04;;;;;;;9.93;3.90;;;512.10;2150.40;;;;;;5089531;28;20047;-78
2022/05/06 07:45:30;;;;;;;7.03;4.05;;;512.30;2201.60;;;;;;5091560;28;20520;-78
2022/05/06 07:47:55;;;;;;;8.55;3.83;;;512.30;2073.60;;;;;;5090518;28;20036;-78
2022/05/06 07:50:21;;;;;;;16.13;4.93;;;512.30;2124.80;;;;;;5090535;28;20035;-79
2022/05/06 07:52:47;;;;;;;6.95;4.13;;;512.40;2176.00;;;;;;5090359;28;20016;-79
2022/05/06 07:55:15;;;;;;;7.82;3.70;;;512.50;2304.00;;;;;;5091047;28;20480;-78
2022/05/06 07:57:41;;;;;;;7.90;3.83;;;512.60;2150.40;;;;;;5092173;28;20051;-79
2022/05/06 08:00:07;;;;;;;9.90;3.95;;;512.70;1920.00;;;;;;5092246;28;20480;-77
2022/05/06 08:05:17;;;;;;;4.95;3.28;;;512.90;1894.40;;;;;;5091763;28;20124;-78
2022/05/06 08:07:44;;;;;;;6.35;3.53;;;512.90;1817.60;;;;;;5090302;28;20115;-79
2022/05/06 08:10:09;;;;;;;9.45;3.33;;;512.90;1920.00;;;;;;5090489;28;20425;-79
2022/05/06 08:12:35;;;;;;;7.03;3.65;;;512.90;1843.20;;;;;;5090330;28;20108;-79
2022/05/06 08:15:01;;;;;;;9.60;3.70;;;537.60;1894.40;;;;;;5090378;28;20028;-78
2022/05/06 08:17:27;;;;;;;9.85;3.90;;;512.90;1792.00;;;;;;5087513;28;20024;-79
2022/05/06 08:19:55;;;;;;;9.32;3.58;;;537.60;1843.20;;;;;;5089866;28;20468;-77
2022/05/06 08:22:20;;;;;;;9.73;3.80;;;537.60;1868.80;;;;;;5090124;28;20032;-78
2022/05/06 08:24:47;;;;;;;7.10;3.00;;;537.70;1843.20;;;;;;5089971;28;20024;-78
2022/05/06 08:27:13;;;;;;;18.90;4.50;;;537.80;1817.60;;;;;;5090495;28;20369;-81
2022/05/06 08:29:40;;;;;;;8.88;4.22;;;537.90;1817.60;;;;;;5090418;28;20137;-79
2022/05/06 08:32:06;;;;;;;7.90;3.60;;;538.10;1817.60;;;;;;5091358;28;20030;-81
2022/05/06 08:34:32;;;;;;;14.02;3.63;;;538.20;1792.00;;;;;;5094536;28;20119;-79
2022/05/06 08:36:58;;;;;;;5.43;3.30;;;538.30;1766.40;;;;;;5094324;28;20051;-82
2022/05/06 08:39:23;;;;;;;5.45;3.45;;;538.30;1715.20;;;;;;5094604;28;20085;-79
2022/05/06 08:41:51;;;;;;;9.10;3.25;;;538.40;1766.40;;;;;;5093799;28;20083;-78
2022/05/06 08:52:40;;;;;;;11.85;3.83;;;538.40;1715.20;;;;;;5095495;28;20031;-82
2022/05/06 08:55:06;;;;;;;;;;;538.20;1664.00;;;;;;5094728;28;20093;-81
2022/05/06 08:57:32;;;;;;;5.88;3.33;;;538.20;1715.20;;;;;;5065593;28;20365;-79
2022/05/06 08:59:58;;;;;;;4.95;3.42;;;538.30;1766.40;;;;;;5093764;28;20050;-79
2022/05/06 09:02:23;;;;;;;7.45;3.38;;;538.30;1766.40;;;;;;5093664;28;20034;-79
2022/05/06 09:04:49;;;;;;;6.22;3.70;;;538.40;1740.80;;;;;;5093200;28;20020;-79
2022/05/06 09:07:19;;;;;;;7.13;3.20;;;538.50;1740.80;;;;;;5093182;28;20032;-80
2022/05/06 09:10:14;;;;;;;6.97;3.63;;;538.50;1715.20;;;;;;5093866;28;20028;-79
2022/05/06 09:12:45;;;;;;;4.72;3.45;;;538.50;1740.80;;;;;;5093735;28;20115;-79
2022/05/06 09:18:03;;;;;;;6.63;3.33;;;563.30;1715.20;;;;;;5092546;28;20024;-80
2022/05/06 09:20:29;;;;;;;10.07;3.83;;;563.40;1612.80;;;;;;5095050;28;20546;-82
2022/05/06 09:22:56;;;;;;;11.60;3.05;;;563.50;1612.80;;;;;;5094064;28;20145;-86
2022/05/06 09:25:53;;;;;;;9.73;4.05;;;563.60;1612.80;;;;;;5094094;28;20089;-81
2022/05/06 09:28:23;;;;;;;10.20;4.25;;;563.60;1612.80;;;;;;5094159;28;20117;-81
2022/05/06 09:31:09;;;;;;;10.00;3.65;;;563.70;1664.00;;;;;;5093698;28;20024;-80
2022/05/06 09:33:40;;;;;;;9.23;3.50;;;563.70;1612.80;;;;;;5093205;28;20036;-78
2022/05/06 09:36:31;;;;;;;7.10;2.83;;;563.90;1664.00;;;;;;5093136;28;20291;-80
2022/05/06 09:39:10;;;;;;;8.60;2.95;;;564.10;1587.20;;;;;;5094405;28;20428;-80
2022/05/06 09:41:40;;;;;;;9.48;3.92;;;588.80;1587.20;;;;;;5092906;28;20039;-81
2022/05/06 09:44:10;;;;;;;9.65;3.17;;;588.80;1612.80;;;;;;5092292;28;20040;-80
2022/05/06 09:46:36;;;;;;;9.88;3.65;;;588.80;1561.60;;;;;;5092485;28;20020;-80
2022/05/06 09:49:03;;;;;;;9.07;3.35;;;589.10;1587.20;;;;;;5092551;28;20028;-79
2022/05/06 09:51:34;;;;;;;9.00;3.17;;;589.10;1484.80;;;;;;5092716;28;20070;-79
2022/05/06 09:54:02;;;;;;;5.72;3.03;;;589.20;1536.00;;;;;;5093023;28;20047;-82
2022/05/06 09:56:28;;;;;;;10.73;4.05;;;589.00;1536.00;;;;;;5092422;28;20028;-80
2022/05/06 09:58:58;;;;;;;6.72;2.97;;;589.00;1510.40;;;;;;5092625;28;20061;-81
2022/05/06 10:01:24;;;;;;;8.50;3.10;;;589.10;1484.80;;;;;;5092124;28;20487;-80
2022/05/06 10:03:52;;;;;;;5.13;3.28;;;589.30;1510.40;;;;;;5092103;28;20028;-80
2022/05/06 10:06:24;;;;;;;6.72;2.97;;;589.70;1459.20;;;;;;5092553;28;20555;-82
2022/05/06 10:08:58;;;;;;;6.55;3.17;;;614.40;1459.20;;;;;;5092391;28;20032;-82
2022/05/06 10:11:28;;;;;;;12.15;3.33;;;614.60;1484.80;;;;;;5093498;28;20095;-81
2022/05/06 10:13:58;;;;;;;5.70;3.15;;;614.50;1510.40;;;;;;5098397;28;20490;-82
2022/05/06 10:16:34;;;;;;;13.02;3.70;;;614.40;1459.20;;;;;;5092687;28;20067;-81
2022/05/06 10:19:01;;;;;;;6.80;3.00;;;614.40;1433.60;;;;;;5076016;28;20032;-80
2022/05/06 10:21:46;;;;;;;6.22;2.67;;;589.70;1459.20;;;;;;5093861;28;20024;-83
2022/05/06 10:24:16;;;;;;;10.30;3.63;;;589.40;1408.00;;;;;;5092425;28;20032;-79
2022/05/06 10:26:45;;;;;;;11.85;3.53;;;589.50;1459.20;;;;;;5092548;28;20042;-82
2022/05/06 10:32:25;;;;;;;7.57;3.15;;;614.70;1484.80;;;;;;5092969;28;20031;-80
2022/05/06 10:34:57;;;;;;;6.50;3.30;;;614.80;1433.60;;;;;;5089917;28;20172;-79
2022/05/06 10:37:26;;;;;;;6.75;3.55;;;614.70;1408.00;;;;;;5090478;28;20044;-80
2022/05/06 10:39:53;;;;;;;12.65;4.13;;;614.60;1408.00;;;;;;5074026;28;20064;-77
2022/05/06 10:42:30;;;;;;;8.73;3.50;;;614.80;1484.80;;;;;;5085523;28;20028;-79
2022/05/06 10:44:56;;;;;;;5.85;3.15;;;614.80;1459.20;;;;;;5092924;28;20081;-80
2022/05/06 10:47:22;;;;;;;8.43;2.78;;;614.60;1433.60;;;;;;5088283;28;20024;-80
2022/05/06 10:49:54;;;;;;;8.05;3.10;;;614.40;1408.00;;;;;;5092740;28;20547;-79
2022/05/06 10:52:22;;;;;;;7.55;3.97;;;589.70;1382.40;;;;;;5091178;28;20038;-78
2022/05/06 10:54:53;;;;;;;8.05;3.20;;;589.70;1433.60;;;;;;5092455;28;20016;-78
2022/05/06 10:57:23;;;;;;;8.82;3.38;;;589.70;1484.80;;;;;;5091599;28;20453;-79
2022/05/06 10:59:52;;;;;;;7.13;3.05;;;589.60;1408.00;;;;;;5091087;28;20044;-79
2022/05/06 11:02:27;;;;;;;9.10;3.03;;;589.50;1382.40;;;;;;5092196;28;20047;-79
2022/05/06 11:04:54;;;;;;;9.17;3.87;;;589.50;1433.60;;;;;;5090660;28;20103;-78
2022/05/06 11:07:20;;;;;;;24.85;5.20;;;589.50;1433.60;;;;;;5092326;28;20360;-78
2022/05/06 11:09:47;;;;;;;6.35;3.20;;;589.70;1459.20;;;;;;5092432;28;20028;-79
2022/05/06 11:12:33;;;;;;;11.75;2.85;;;589.70;1510.40;;;;;;5091255;28;20498;-78
2022/05/06 11:14:59;;;;;;;9.02;3.60;;;589.60;1459.20;;;;;;5092035;28;20020;-77
2022/05/06 11:17:25;;;;;;;6.82;3.15;;;589.70;1459.20;;;;;;5092115;28;20050;-78
2022/05/06 11:19:51;;;;;;;8.07;3.28;;;614.40;1433.60;;;;;;5090779;28;20012;-78
2022/05/06 11:22:17;;;;;;;10.52;3.45;;;614.40;1459.20;;;;;;5092042;28;20024;-78
2022/05/06 11:24:46;;;;;;;6.85;3.42;;;614.50;1484.80;;;;;;5091256;28;20028;-78
2022/05/06 11:27:21;;;;;;;10.10;3.63;;;614.40;1433.60;;;;;;5091670;28;20128;-77
2022/05/06 11:29:55;;;;;;;13.80;3.90;;;614.50;1459.20;;;;;;5090679;28;20059;-77
2022/05/06 11:32:21;;;;;;;6.32;3.13;;;614.50;1433.60;;;;;;5088140;28;20034;-78
2022/05/06 11:34:56;;;;;;;10.15;3.30;;;614.50;1433.60;;;;;;5090516;28;20107;-78
2022/05/06 11:37:26;;;;;;;8.77;3.67;;;614.50;1484.80;;;;;;5088166;28;20028;-78
2022/05/06 11:40:18;;;;;;;10.52;3.28;;;614.50;1510.40;;;;;;5090494;28;20035;-78
2022/05/06 11:42:39;;;;;;;14.82;4.15;;;614.50;1484.80;;;;;;5089209;28;20499;-77
2022/05/06 11:47:49;;;;;;;9.25;3.45;;;614.60;1459.20;;;;;;5092728;28;20081;-79
2022/05/06 11:50:15;;;;;;;9.73;3.53;;;614.80;1484.80;;;;;;5090968;28;20475;-79
2022/05/06 11:52:45;;;;;;;9.57;3.55;;;614.80;1433.60;;;;;;5090609;28;20031;-77
2022/05/06 11:55:11;;;;;;;10.63;3.53;;;614.80;1433.60;;;;;;5092404;28;20021;-79
2022/05/06 11:57:39;;;;;;;9.45;3.28;;;614.60;1484.80;;;;;;5091108;28;20103;-79
2022/05/06 12:00:07;;;;;;;10.55;3.28;;;614.50;1459.20;;;;;;5091416;28;20517;-78
2022/05/06 12:02:33;;;;;;;8.50;3.55;;;614.50;1484.80;;;;;;5091718;28;20131;-78
2022/05/06 12:04:59;;;;;;;9.55;3.33;;;614.80;1433.60;;;;;;5089940;28;20047;-78
2022/05/06 12:07:45;;;;;;;14.45;3.85;;;614.50;1510.40;;;;;;5091759;28;20024;-78
2022/05/06 12:10:27;;;;;;;13.13;3.55;;;614.60;1459.20;;;;;;5092751;28;20035;-78
2022/05/06 12:12:58;;;;;;;9.75;3.53;;;614.60;1408.00;;;;;;5093560;28;20430;-77
2022/05/06 12:15:41;;;;;;;14.00;3.55;;;614.70;1459.20;;;;;;5095553;28;20020;-78
2022/05/06 12:18:11;;;;;;;17.13;3.65;;;614.80;1433.60;;;;;;5094277;28;20444;-78
2022/05/06 12:20:42;;;;;;;9.95;4.38;;;614.80;1459.20;;;;;;5094002;28;20032;-78
2022/05/06 12:23:11;;;;;;;17.50;4.60;;;614.70;1459.20;;;;;;5094084;28;20043;-78
2022/05/06 12:25:40;;;;;;;15.02;3.13;;;615.10;1459.20;;;;;;5093872;28;20031;-78
2022/05/06 12:28:24;;;;;;;11.18;3.60;;;640.00;1408.00;;;;;;5093616;28;20097;-78
2022/05/06 12:30:57;;;;;;;11.52;3.45;;;640.00;1408.00;;;;;;5095166;28;20110;-78
2022/05/06 12:33:39;;;;;;;10.10;3.40;;;615.30;1382.40;;;;;;5093577;28;20024;-79
2022/05/06 12:36:06;;;;;;;10.77;3.88;;;615.30;1459.20;;;;;;5098663;28;20028;-79
2022/05/06 12:38:40;;;;;;;8.65;4.43;;;615.20;1382.40;;;;;;5093551;28;20103;-78
2022/05/06 12:41:20;;;;;;;6.20;3.15;;;615.10;1356.80;;;;;;5093417;28;20032;-79
2022/05/06 12:43:51;;;;;;;10.43;3.78;;;614.90;1408.00;;;;;;5091467;28;20510;-78
2022/05/06 12:46:28;;;;;;;9.43;3.47;;;614.80;1382.40;;;;;;5093538;28;20028;-78
2022/05/06 12:51:40;;;;;;;8.10;3.33;;;614.80;1433.60;;;;;;5094654;28;20029;-78
2022/05/06 12:54:07;;;;;;;6.47;3.00;;;614.80;1408.00;;;;;;5093356;28;20479;-79
2022/05/06 12:56:33;;;;;;;6.72;3.30;;;614.60;1408.00;;;;;;5095350;28;20070;-78
2022/05/06 12:58:59;;;;;;;6.72;3.45;;;614.80;1433.60;;;;;;5095239;28;20047;-78
2022/05/06 13:01:24;;;;;;;9.40;3.45;;;614.60;1433.60;;;;;;5093663;28;20071;-79